This is the latest recevied weather packets stored in our database for station/object R2BLN-13. If no packets are shown the sender has not sent any weather packets the latest 10 day(s).
| Time | Temp. | Humidity | Pressure | Rain* | Wind** | Luminosity | Snow |
|---|---|---|---|---|---|---|---|
| 1787750254 | 18.33° C | 59% | 997.9 hPa | - | - | - | - |
| 1787749654 | 18.33° C | 59% | 997.8 hPa | - | - | - | - |
| 1787749054 | 18.89° C | 59% | 997.8 hPa | - | - | - | - |
| 1787748454 | 18.33° C | 59% | 997.6 hPa | - | - | - | - |
| 1787747854 | 18.33° C | 58% | 997.6 hPa | - | - | - | - |
| 1787747254 | 18.89° C | 57% | 997.5 hPa | - | - | - | - |
| 1787746654 | 19.44° C | 56% | 997.5 hPa | - | - | - | - |
| 1787746054 | 19.44° C | 58% | 997.5 hPa | - | - | - | - |
| 1787745454 | 19.44° C | 56% | 997.4 hPa | - | - | - | - |
| 1787744854 | 20° C | 57% | 997.4 hPa | - | - | - | - |
| 1787744254 | 20.56° C | 55% | 997.4 hPa | - | - | - | - |
| 1787743654 | 20.56° C | 56% | 997.3 hPa | - | - | - | - |
| 1787743054 | 20° C | 57% | 997.3 hPa | - | - | - | - |
| 1787742444 | 19.44° C | 58% | 997.3 hPa | - | - | - | - |
| 1787741840 | 19.44° C | 59% | 997.4 hPa | - | - | - | - |
| 1787741239 | 19.44° C | 60% | 997.2 hPa | - | - | - | - |
| 1787740614 | 20° C | 57% | 997.1 hPa | - | - | - | - |
| 1787740014 | 21.67° C | 53% | 996.8 hPa | - | - | - | - |
| 1787739414 | 20.56° C | 56% | 996.8 hPa | - | - | - | - |
| 1787738814 | 21.11° C | 57% | 996.8 hPa | - | - | - | - |
| 1787738214 | 20° C | 58% | 996.9 hPa | - | - | - | - |
| 1787737614 | 19.44° C | 58% | 996.8 hPa | - | - | - | - |
| 1787737014 | 20° C | 56% | 996.6 hPa | - | - | - | - |
| 1787736409 | 20° C | 57% | 996.5 hPa | - | - | - | - |
| 1787735799 | 20° C | 57% | 996.4 hPa | - | - | - | - |
* Rain since midnight (hover to see other rain measurements)
** Current wind speed in m/s (hover to see current wind gust speed)